Alden, New York
Current Conditions -  °F | °C
As of 8:54 AM on Thursday 27 Nov 2014 (Local Time) from KBUF Reporting Station
Overcast Overcast  
Wind Chill: 29°   Ceiling: 6000
Heat Index: 29°   Visibility: 9mi
Dew Point: 22°   Wind: 3mph
Humidity: 75%   Direction: 220°SW
Pressure: 30.05"   Gusts: NA
Location:  42.9°N, 78.49°W
Report Text: KBUF 271354Z 22003KT 9SM FEW045 BKN060 OVC070 M02/M06 A3005 RMK AO2 SNE49 SLP186 P0000 T10171056
Loading
Personal Weather Stations






























Interactive Weather Map New forecast layout! Learn more

10-Day Weather Forecast

Advertisements
Track Severe Weather on mobile